createdAt,value
2019-04-23T00:01:08.194Z,65.05
2019-04-23T00:01:59.763Z,65.49
2019-04-23T00:02:58.469Z,65.11
2019-04-23T00:03:54.844Z,65.78
2019-04-23T00:04:52.803Z,64.92
2019-04-23T00:06:02.374Z,65.01
2019-04-23T00:10:09.613Z,65.97
2019-04-23T00:10:59.222Z,65.88
2019-04-23T00:11:51.825Z,65.68
2019-04-23T00:12:52.785Z,65.97
2019-04-23T00:13:57.756Z,66.54
2019-04-23T00:15:05.159Z,66.25
2019-04-23T00:16:05.005Z,65.88
2019-04-23T00:16:57.821Z,66.45
2019-04-23T00:18:00.836Z,66.03
2019-04-23T00:21:34.609Z,66.61
2019-04-23T00:22:36.777Z,67.18
2019-04-23T00:23:38.486Z,66.80
2019-04-23T00:24:53.844Z,67.47
2019-04-23T00:29:20.924Z,67.47
2019-04-23T00:32:58.379Z,68.33
2019-04-23T00:40:11.379Z,68.23
2019-04-23T00:41:30.888Z,68.96
2019-04-23T00:42:28.321Z,69.19
2019-04-23T00:43:17.076Z,69.09
2019-04-23T00:44:21.344Z,68.90
2019-04-23T00:45:16.617Z,69.67
2019-04-23T00:46:18.722Z,69.06
2019-04-23T00:47:19.274Z,69.54
2019-04-23T00:50:05.936Z,70.01
2019-04-23T00:50:54.314Z,69.82
2019-04-23T00:51:58.746Z,70.40
2019-04-23T00:53:17.483Z,70.11
2019-04-23T00:53:56.727Z,70.21
2019-04-23T00:55:07.533Z,69.82
2019-04-23T00:56:06.638Z,69.82
2019-04-23T00:57:00.833Z,70.01
2019-04-23T00:57:59.932Z,69.82
2019-04-23T01:01:38.881Z,69.44
2019-04-23T01:02:37.436Z,70.21
2019-04-23T01:03:25.211Z,69.64
2019-04-23T01:04:36.443Z,70.11
2019-04-23T01:05:29.471Z,70.40
2019-04-23T01:06:32.475Z,70.21
2019-04-23T01:07:33.388Z,71.45
2019-04-23T01:08:29.706Z,70.21
2019-04-23T01:09:29.625Z,70.21
2019-04-23T01:10:36.748Z,71.16
2019-04-23T01:11:34.186Z,70.78
2019-04-23T01:12:38.393Z,70.68
2019-04-23T01:13:39.361Z,70.78
2019-04-23T01:14:26.245Z,70.97
2019-04-23T01:15:32.840Z,70.30
2019-04-23T01:16:31.734Z,71.07
2019-04-23T01:17:41.042Z,70.17
2019-04-23T01:18:45.285Z,69.79
2019-04-23T01:20:28.966Z,70.36
2019-04-23T01:21:09.693Z,69.98
2019-04-23T01:22:10.505Z,70.56
2019-04-23T01:23:09.606Z,70.65
2019-04-23T01:24:15.355Z,70.65
2019-04-23T01:25:20.018Z,71.22
2019-04-23T01:26:32.880Z,71.13
2019-04-23T01:27:51.362Z,70.46
2019-04-23T01:28:39.939Z,70.94
2019-04-23T01:29:39.120Z,70.27
2019-04-23T01:30:59.710Z,70.56
2019-04-23T01:31:33.252Z,70.46
2019-04-23T01:32:52.021Z,70.84
2019-04-23T01:33:38.997Z,71.80
2019-04-23T01:34:41.559Z,72.28
2019-04-23T01:35:33.153Z,71.51
2019-04-23T01:36:32.942Z,72.08
2019-04-23T01:37:36.730Z,71.42
2019-04-23T01:38:41.712Z,70.84
2019-04-23T01:41:26.764Z,71.51
2019-04-23T01:42:29.540Z,71.70
2019-04-23T01:43:38.097Z,71.67
2019-04-23T01:44:25.391Z,71.32
2019-04-23T01:46:22.030Z,71.51
2019-04-23T01:47:24.410Z,72.18
2019-04-23T01:48:23.674Z,71.38
2019-04-23T01:49:29.341Z,72.43
2019-04-23T01:54:55.403Z,72.43
2019-04-23T01:55:52.680Z,73.48
2019-04-23T01:56:47.226Z,73.58
2019-04-23T01:57:56.371Z,73.29
2019-04-23T01:58:57.617Z,73.77
2019-04-23T01:59:58.455Z,73.67
2019-04-23T02:00:47.506Z,73.86
2019-04-23T02:01:51.969Z,74.15
2019-04-23T02:04:56.950Z,74.53
2019-04-23T02:05:48.383Z,74.53
2019-04-23T02:06:55.987Z,73.58
2019-04-23T02:07:54.605Z,73.10
2019-04-23T02:08:52.210Z,73.10
2019-04-23T02:09:55.570Z,73.00
2019-04-23T02:10:58.798Z,72.24
2019-04-23T02:11:53.344Z,72.91
2019-04-23T02:12:55.655Z,72.91
2019-04-23T02:13:51.582Z,73.19
2019-04-23T02:14:49.939Z,73.29
2019-04-23T02:16:05.180Z,73.77
2019-04-23T02:17:08.067Z,73.29
2019-04-23T02:18:56.817Z,74.05
2019-04-23T02:19:55.723Z,74.05
2019-04-23T02:20:47.869Z,74.24
2019-04-23T02:25:13.381Z,73.96
2019-04-23T02:26:10.646Z,74.44
2019-04-23T02:27:13.763Z,74.82
2019-04-23T02:30:37.556Z,75.10
2019-04-23T02:31:25.297Z,75.54
2019-04-23T02:34:21.311Z,75.16
2019-04-23T02:35:17.272Z,75.16
2019-04-23T02:36:23.886Z,75.35
2019-04-23T02:37:17.853Z,74.98
2019-04-23T02:39:03.559Z,74.69
2019-04-23T02:40:20.192Z,75.07
2019-04-23T02:41:20.214Z,75.54
2019-04-23T02:43:15.121Z,76.79
2019-04-23T02:45:09.658Z,76.31
2019-04-23T02:46:33.963Z,76.40
2019-04-23T02:47:19.303Z,77.36
2019-04-23T02:51:10.797Z,77.65
2019-04-23T02:52:18.275Z,77.65
2019-04-23T02:53:27.266Z,77.03
2019-04-23T02:56:25.237Z,77.03
2019-04-23T02:57:13.963Z,76.94
2019-04-23T02:58:19.160Z,76.94
2019-04-23T02:59:21.432Z,77.42
2019-04-23T03:00:18.543Z,77.13
2019-04-23T03:01:25.284Z,77.70
2019-04-23T03:02:26.264Z,77.61
2019-04-23T03:03:13.680Z,77.51
2019-04-23T03:04:21.967Z,76.94
2019-04-23T03:05:18.820Z,75.89
2019-04-23T03:07:22.436Z,75.98
2019-04-23T03:09:17.112Z,76.27
2019-04-23T03:11:20.029Z,77.42
2019-04-23T03:12:18.360Z,77.03
2019-04-23T03:14:18.751Z,77.03
2019-04-23T03:15:21.758Z,76.94
2019-04-23T03:18:11.929Z,76.27
2019-04-23T03:19:58.878Z,77.61
2019-04-23T03:21:19.634Z,76.65
2019-04-23T03:24:02.247Z,77.23
2019-04-23T03:24:55.913Z,76.37
2019-04-23T03:27:09.810Z,77.03
2019-04-23T03:32:37.390Z,76.94
2019-04-23T03:37:58.166Z,78.23
2019-04-23T03:39:56.729Z,78.09
2019-04-23T03:41:02.523Z,78.56
2019-04-23T03:42:53.947Z,77.47
2019-04-23T03:46:00.829Z,78.33
2019-04-23T03:46:46.749Z,78.14
2019-04-23T03:48:00.797Z,78.72
2019-04-23T03:48:57.390Z,78.91
2019-04-23T03:49:55.997Z,78.43
2019-04-23T03:51:52.241Z,78.52
2019-04-23T03:54:46.190Z,79.96
2019-04-23T03:55:54.642Z,80.05
2019-04-23T03:58:08.108Z,80.05
2019-04-23T03:58:48.717Z,79.96
2019-04-23T04:03:03.755Z,80.33
2019-04-23T04:06:02.970Z,81.10
2019-04-23T04:07:05.439Z,80.62
2019-04-23T04:08:00.682Z,80.72
2019-04-23T04:08:58.313Z,80.91
2019-04-23T04:09:47.848Z,81.01
2019-04-23T04:10:52.420Z,80.62
2019-04-23T04:11:33.526Z,80.24
2019-04-23T04:13:50.493Z,81.01
2019-04-23T04:15:05.130Z,80.81
2019-04-23T04:15:58.907Z,80.72
2019-04-23T04:19:09.273Z,80.91
2019-04-23T04:19:47.785Z,80.43
2019-04-23T04:20:53.715Z,80.24
2019-04-23T04:21:49.940Z,81.01
2019-04-23T04:22:59.221Z,81.38
2019-04-23T04:23:51.233Z,81.01
2019-04-23T04:25:49.914Z,80.62
2019-04-23T04:28:51.017Z,80.72
2019-04-23T04:32:00.359Z,81.38
2019-04-23T04:37:18.487Z,81.10
2019-04-23T04:40:55.171Z,82.15
2019-04-23T04:42:06.136Z,82.15
2019-04-23T04:44:50.060Z,81.29
2019-04-23T04:47:45.630Z,81.77
2019-04-23T04:48:58.864Z,82.43
2019-04-23T04:49:55.693Z,82.43
2019-04-23T04:51:00.231Z,82.82
2019-04-23T04:54:39.337Z,82.24
2019-04-23T04:56:49.835Z,81.86
2019-04-23T05:00:06.815Z,83.01
2019-04-23T05:02:01.198Z,82.15
2019-04-23T05:03:32.825Z,81.29
2019-04-23T05:07:48.071Z,81.29
2019-04-23T05:09:47.701Z,81.01
2019-04-23T05:10:55.715Z,81.52
2019-04-23T05:11:52.330Z,81.58
2019-04-23T05:12:52.907Z,81.58
2019-04-23T05:15:44.301Z,81.20
2019-04-23T05:17:55.358Z,82.48
2019-04-23T05:18:58.035Z,82.00
2019-04-23T05:22:49.325Z,81.14
2019-04-23T05:23:42.943Z,80.85
2019-04-23T05:24:41.057Z,80.85
2019-04-23T05:25:44.950Z,81.04
2019-04-23T05:26:33.334Z,80.85
2019-04-23T05:27:55.257Z,80.85
2019-04-23T05:28:51.188Z,80.85
2019-04-23T05:29:48.595Z,80.95
2019-04-23T05:30:46.368Z,80.66
2019-04-23T05:31:32.841Z,80.28
2019-04-23T05:32:43.182Z,79.90
2019-04-23T05:33:49.286Z,80.38
2019-04-23T05:34:40.098Z,80.38
2019-04-23T05:37:59.408Z,80.28
2019-04-23T05:38:51.105Z,80.80
2019-04-23T05:39:38.103Z,80.80
2019-04-23T05:40:45.283Z,80.61
2019-04-23T05:41:42.060Z,80.22
2019-04-23T05:44:43.178Z,79.36
2019-04-23T05:45:41.330Z,79.65
2019-04-23T05:46:49.054Z,80.22
2019-04-23T05:47:48.218Z,79.65
2019-04-23T05:48:37.711Z,79.17
2019-04-23T05:49:47.542Z,79.27
2019-04-23T05:50:53.929Z,80.90
2019-04-23T05:51:52.652Z,80.07
2019-04-23T05:52:45.872Z,79.27
2019-04-23T05:55:46.056Z,79.31
2019-04-23T05:56:38.831Z,78.83
2019-04-23T05:57:40.375Z,79.12
2019-04-23T05:58:48.930Z,78.74
2019-04-23T05:59:48.516Z,78.36
2019-04-23T06:00:50.934Z,78.13
2019-04-23T06:02:51.733Z,78.64
2019-04-23T06:03:42.068Z,78.55
2019-04-23T06:04:43.065Z,79.31
2019-04-23T06:05:49.563Z,77.97
2019-04-23T06:07:11.350Z,77.87
2019-04-23T06:07:42.698Z,78.45
2019-04-23T06:08:51.637Z,78.64
2019-04-23T06:09:41.468Z,77.21
2019-04-23T06:10:40.633Z,78.07
2019-04-23T06:12:42.268Z,77.25
2019-04-23T06:13:47.707Z,78.01
2019-04-23T06:15:49.234Z,77.72
2019-04-23T06:16:41.622Z,77.25
2019-04-23T06:17:44.479Z,77.06
2019-04-23T06:18:51.623Z,76.48
2019-04-23T06:19:33.114Z,76.57
2019-04-23T06:20:51.760Z,76.67
2019-04-23T06:22:42.375Z,76.67
2019-04-23T06:23:46.456Z,76.00
2019-04-23T06:24:41.148Z,76.29
2019-04-23T06:27:43.210Z,76.42
2019-04-23T06:28:41.765Z,76.71
2019-04-23T06:29:48.066Z,76.90
2019-04-23T06:32:41.403Z,75.37
2019-04-23T06:33:44.959Z,75.56
2019-04-23T06:34:42.314Z,75.66
2019-04-23T06:35:45.459Z,74.99
2019-04-23T06:36:38.462Z,75.27
2019-04-23T06:38:09.016Z,75.47
2019-04-23T06:39:44.511Z,75.02
2019-04-23T06:40:43.568Z,74.84
2019-04-23T06:41:44.957Z,74.93
2019-04-23T06:42:41.018Z,74.74
2019-04-23T06:43:46.618Z,75.22
2019-04-23T06:44:37.663Z,74.55
2019-04-23T06:45:40.297Z,74.16
2019-04-23T06:46:45.926Z,74.45
2019-04-23T06:47:40.979Z,74.45
2019-04-23T06:48:40.712Z,74.65
2019-04-23T06:50:45.570Z,73.79
2019-04-23T06:51:46.602Z,73.72
2019-04-23T06:52:31.796Z,73.44
2019-04-23T06:53:36.339Z,73.54
2019-04-23T06:54:45.952Z,73.05
2019-04-23T06:55:42.287Z,73.44
2019-04-23T06:56:43.256Z,73.05
2019-04-23T06:57:33.331Z,72.58
2019-04-23T06:58:37.350Z,73.05
2019-04-23T06:59:39.578Z,72.77
2019-04-23T07:00:42.776Z,72.96
2019-04-23T07:01:51.043Z,72.99
2019-04-23T07:02:37.567Z,72.42
2019-04-23T07:03:45.205Z,72.03
2019-04-23T07:04:43.490Z,72.00
2019-04-23T07:05:40.957Z,71.94
2019-04-23T07:09:04.416Z,71.56
2019-04-23T07:09:35.722Z,71.27
2019-04-23T07:10:42.296Z,72.13
2019-04-23T07:11:51.274Z,71.66
2019-04-23T07:12:41.410Z,71.84
2019-04-23T07:13:49.152Z,71.84
2019-04-23T07:14:46.284Z,72.07
2019-04-23T07:16:38.534Z,71.88
2019-04-23T07:17:36.157Z,71.40
2019-04-23T07:18:38.023Z,71.69
2019-04-23T07:20:40.331Z,71.31
2019-04-23T07:21:35.315Z,71.31
2019-04-23T07:22:41.379Z,71.21
2019-04-23T07:23:45.661Z,71.31
2019-04-23T07:24:45.325Z,70.83
2019-04-23T07:25:41.764Z,70.92
2019-04-23T07:27:37.078Z,70.83
2019-04-23T07:28:48.560Z,71.11
2019-04-23T07:29:50.082Z,70.67
2019-04-23T07:30:38.446Z,70.67
2019-04-23T07:31:53.991Z,70.09
2019-04-23T07:32:38.918Z,70.86
2019-04-23T07:33:45.931Z,70.57
2019-04-23T07:34:46.937Z,70.57
2019-04-23T07:35:41.686Z,70.86
2019-04-23T07:37:40.291Z,70.19
2019-04-23T07:38:47.334Z,70.29
2019-04-23T07:40:12.991Z,69.71
2019-04-23T07:40:43.035Z,69.33
2019-04-23T07:42:58.294Z,70.57
2019-04-23T07:43:39.780Z,70.38
2019-04-23T07:44:42.467Z,70.32
2019-04-23T07:45:45.409Z,70.23
2019-04-23T07:46:48.176Z,69.74
2019-04-23T07:47:37.970Z,69.56
2019-04-23T07:48:30.492Z,69.17
2019-04-23T07:49:41.459Z,69.46
2019-04-23T07:51:35.672Z,69.17
2019-04-23T07:52:41.493Z,70.13
2019-04-23T07:53:37.911Z,69.93
2019-04-23T07:56:41.908Z,70.23
2019-04-23T07:57:40.121Z,70.32
2019-04-23T07:58:33.274Z,69.84
2019-04-23T07:59:44.961Z,70.13
2019-04-23T08:00:47.179Z,69.46
2019-04-23T08:01:34.861Z,69.46
2019-04-23T08:02:38.405Z,69.93
2019-04-23T08:03:36.584Z,70.03
2019-04-23T08:04:46.187Z,69.93
2019-04-23T08:05:49.524Z,70.13
2019-04-23T08:06:37.594Z,70.70
2019-04-23T08:08:37.999Z,70.32
2019-04-23T08:09:43.653Z,70.13
2019-04-23T08:10:46.568Z,70.17
2019-04-23T08:12:40.205Z,70.80
2019-04-23T08:14:44.217Z,69.59
2019-04-23T08:16:36.702Z,69.97
2019-04-23T08:17:34.594Z,69.59
2019-04-23T08:18:46.333Z,69.40
2019-04-23T08:20:42.014Z,69.49
2019-04-23T08:21:32.092Z,69.49
2019-04-23T08:22:39.394Z,69.40
2019-04-23T08:23:47.302Z,69.11
2019-04-23T08:24:45.298Z,68.95
2019-04-23T08:25:47.258Z,69.53
2019-04-23T08:26:42.499Z,69.14
2019-04-23T08:27:35.242Z,69.40
2019-04-23T08:28:52.093Z,69.14
2019-04-23T08:29:54.431Z,68.76
2019-04-23T08:30:42.254Z,68.47
2019-04-23T08:32:27.857Z,68.02
2019-04-23T08:33:46.216Z,68.37
2019-04-23T08:34:44.889Z,68.08
2019-04-23T08:36:40.747Z,68.60
2019-04-23T08:38:01.478Z,68.28
2019-04-23T08:38:35.943Z,68.60
2019-04-23T08:39:38.619Z,68.41
2019-04-23T08:40:49.180Z,68.60
2019-04-23T08:41:46.154Z,68.31
2019-04-23T08:43:51.754Z,67.83
2019-04-23T08:45:31.317Z,67.83
2019-04-23T08:46:43.399Z,67.93
2019-04-23T08:47:33.126Z,67.64
2019-04-23T08:49:43.615Z,67.74
2019-04-23T08:50:40.331Z,68.25
2019-04-23T08:51:44.082Z,67.68
2019-04-23T08:52:38.301Z,68.15
2019-04-23T08:54:52.007Z,68.06
2019-04-23T08:55:38.423Z,67.96
2019-04-23T08:56:46.128Z,67.80
2019-04-23T08:57:32.155Z,67.90
2019-04-23T08:58:47.462Z,67.03
2019-04-23T08:59:48.650Z,67.13
2019-04-23T09:00:42.451Z,66.58
2019-04-23T09:01:47.797Z,66.10
2019-04-23T09:02:41.043Z,66.39
2019-04-23T09:03:45.806Z,66.27
2019-04-23T09:04:40.054Z,66.55
2019-04-23T09:05:38.184Z,66.27
2019-04-23T09:06:35.363Z,66.55
2019-04-23T09:07:37.552Z,66.07
2019-04-23T09:09:45.436Z,66.17
2019-04-23T09:10:46.494Z,66.10
2019-04-23T09:11:45.785Z,65.72
2019-04-23T09:12:44.311Z,65.72
2019-04-23T09:14:42.121Z,65.33
2019-04-23T09:15:48.283Z,65.14
2019-04-23T09:16:36.161Z,65.37
2019-04-23T09:17:45.576Z,64.66
2019-04-23T09:18:33.879Z,65.14
2019-04-23T09:19:46.017Z,64.50
2019-04-23T09:20:31.356Z,64.47
2019-04-23T09:21:33.006Z,64.79
2019-04-23T09:23:40.881Z,64.56
2019-04-23T09:24:43.134Z,65.17
2019-04-23T09:25:40.685Z,65.17
2019-04-23T09:26:33.019Z,65.37
2019-04-23T09:27:41.912Z,65.17
2019-04-23T09:28:45.403Z,65.17
2019-04-23T09:29:49.223Z,64.50
2019-04-23T09:30:32.195Z,65.50
2019-04-23T09:32:00.580Z,64.53
2019-04-23T09:33:52.219Z,64.25
2019-04-23T09:34:38.724Z,63.95
2019-04-23T09:35:38.964Z,63.85
2019-04-23T09:36:40.535Z,63.95
2019-04-23T09:37:40.390Z,63.85
2019-04-23T09:38:32.998Z,64.18
2019-04-23T09:40:41.694Z,64.18
2019-04-23T09:41:42.359Z,63.98
2019-04-23T09:42:38.426Z,63.95
2019-04-23T09:43:33.145Z,63.95
2019-04-23T09:44:56.616Z,63.76
2019-04-23T09:46:55.756Z,64.82
2019-04-23T09:47:38.099Z,65.20
2019-04-23T09:48:41.999Z,64.15
2019-04-23T09:49:39.545Z,64.63
2019-04-23T09:50:38.420Z,64.25
2019-04-23T09:51:35.820Z,64.63
2019-04-23T09:52:43.167Z,64.98
2019-04-23T09:53:33.911Z,64.89
2019-04-23T09:54:39.911Z,65.37
2019-04-23T09:56:41.430Z,66.01
2019-04-23T09:57:36.073Z,66.14
2019-04-23T09:58:30.033Z,65.94
2019-04-23T09:59:39.460Z,66.14
2019-04-23T10:00:36.398Z,66.04
2019-04-23T10:02:27.299Z,65.66
2019-04-23T10:03:21.163Z,65.27
2019-04-23T10:04:23.776Z,65.88
2019-04-23T10:05:22.179Z,65.78
2019-04-23T10:06:14.877Z,66.27
2019-04-23T10:07:23.853Z,65.88
2019-04-23T10:08:16.184Z,65.59
2019-04-23T10:09:10.133Z,65.20
2019-04-23T10:10:08.137Z,65.08
2019-04-23T10:11:09.290Z,65.11
2019-04-23T10:12:09.412Z,65.20
2019-04-23T10:13:08.263Z,65.11
2019-04-23T10:14:08.304Z,64.56
2019-04-23T10:15:13.777Z,65.14
2019-04-23T10:16:11.700Z,65.53
2019-04-23T10:17:08.433Z,64.28
2019-04-23T10:18:07.921Z,64.86
2019-04-23T10:19:08.000Z,64.76
2019-04-23T10:20:08.696Z,64.76
2019-04-23T10:21:07.832Z,65.05
2019-04-23T10:22:09.082Z,64.95
2019-04-23T10:23:08.357Z,65.81
2019-04-23T10:24:07.599Z,64.95
2019-04-23T10:25:08.752Z,65.33
2019-04-23T10:26:07.906Z,65.43
2019-04-23T10:27:08.384Z,65.24
2019-04-23T10:28:10.895Z,65.33
2019-04-23T10:29:07.753Z,65.05
2019-04-23T10:30:08.149Z,64.86
2019-04-23T10:31:08.925Z,65.05
2019-04-23T10:32:07.571Z,65.14
2019-04-23T10:33:07.535Z,65.24
2019-04-23T10:34:08.250Z,64.18
2019-04-23T10:35:20.430Z,64.56
2019-04-23T10:36:12.858Z,64.66
2019-04-23T10:37:07.350Z,65.24
2019-04-23T10:38:10.764Z,64.40
2019-04-23T10:39:11.797Z,64.31
2019-04-23T10:40:12.744Z,64.40
2019-04-23T10:41:07.081Z,63.85
2019-04-23T10:42:07.925Z,63.09
2019-04-23T10:43:07.489Z,62.99
2019-04-23T10:44:07.170Z,62.79
2019-04-23T10:45:20.742Z,63.18
2019-04-23T10:46:27.914Z,62.70
2019-04-23T10:47:32.347Z,62.89
2019-04-23T10:48:49.593Z,63.47
2019-04-23T10:50:43.123Z,63.40
2019-04-23T10:52:30.850Z,63.43
2019-04-23T10:53:37.991Z,62.95
2019-04-23T10:55:44.728Z,61.99
2019-04-23T10:56:42.942Z,61.60
2019-04-23T10:57:44.345Z,61.47
2019-04-23T10:58:36.803Z,61.89
2019-04-23T10:59:35.719Z,61.89
2019-04-23T11:00:35.842Z,61.89
2019-04-23T11:01:36.572Z,61.60
2019-04-23T11:05:47.403Z,61.12
2019-04-23T11:06:41.368Z,61.89
2019-04-23T11:08:51.851Z,62.02
2019-04-23T11:09:52.364Z,61.34
2019-04-23T11:10:33.192Z,60.96
2019-04-23T11:11:40.746Z,61.27
2019-04-23T11:14:53.660Z,59.44
2019-04-23T11:16:49.272Z,59.50
2019-04-23T11:17:38.720Z,58.53
2019-04-23T11:18:46.859Z,59.11
2019-04-23T11:19:45.836Z,59.11
2019-04-23T11:20:35.421Z,57.95
2019-04-23T11:21:33.906Z,57.95
2019-04-23T11:23:34.341Z,58.75
2019-04-23T11:24:48.858Z,57.20
2019-04-23T11:25:34.931Z,57.50
2019-04-23T11:26:37.067Z,56.85
2019-04-23T11:27:36.245Z,56.39
2019-04-23T11:28:33.245Z,56.41
2019-04-23T11:29:40.400Z,55.54
2019-04-23T11:31:48.773Z,54.21
2019-04-23T11:32:46.638Z,54.05
2019-04-23T11:33:39.232Z,54.31
2019-04-23T11:34:56.413Z,54.02
2019-04-23T11:37:54.678Z,53.85
2019-04-23T11:38:22.124Z,53.75
2019-04-23T11:38:49.113Z,53.85
2019-04-23T11:39:37.464Z,53.56
2019-04-23T11:40:33.188Z,53.27
2019-04-23T11:42:38.822Z,52.74
2019-04-23T11:43:33.029Z,51.48
2019-04-23T11:44:45.835Z,51.57
2019-04-23T11:45:40.410Z,51.01
2019-04-23T11:46:45.686Z,51.21
2019-04-23T11:48:14.206Z,51.57
2019-04-23T11:48:52.343Z,51.48
2019-04-23T11:51:46.083Z,51.31
2019-04-23T11:52:41.657Z,50.58
2019-04-23T11:53:51.059Z,50.26
2019-04-23T11:57:13.095Z,50.26
2019-04-23T11:57:49.082Z,49.99
2019-04-23T11:58:37.634Z,49.44
2019-04-23T11:59:35.881Z,48.85
2019-04-23T12:00:42.040Z,48.44
2019-04-23T12:02:38.553Z,49.78
2019-04-23T12:03:37.707Z,50.36
2019-04-23T12:04:40.621Z,49.56
2019-04-23T12:05:48.203Z,50.43
2019-04-23T12:06:30.164Z,50.87
2019-04-23T12:08:41.429Z,51.98
2019-04-23T12:09:40.110Z,53.44
2019-04-23T12:12:33.411Z,52.76
2019-04-23T12:13:35.399Z,53.67
2019-04-23T12:14:47.215Z,53.67
2019-04-23T12:15:37.552Z,54.06
2019-04-23T12:16:38.450Z,54.84
2019-04-23T12:17:31.702Z,54.45
2019-04-23T12:19:52.965Z,54.71
2019-04-23T12:20:33.438Z,55.94
2019-04-23T12:21:37.990Z,55.78
2019-04-23T12:22:38.927Z,55.68
2019-04-23T12:23:43.539Z,56.26
2019-04-23T12:24:58.202Z,56.82
2019-04-23T12:25:40.701Z,56.26
2019-04-23T12:26:42.501Z,55.98
2019-04-23T12:27:52.224Z,56.36
2019-04-23T12:28:40.271Z,55.71
2019-04-23T12:29:50.750Z,55.16
2019-04-23T12:31:47.107Z,53.69
2019-04-23T12:33:36.142Z,52.72
2019-04-23T12:34:36.311Z,53.69
2019-04-23T12:35:29.218Z,52.72
2019-04-23T12:36:36.958Z,53.03
2019-04-23T12:37:35.090Z,52.35
2019-04-23T12:38:33.294Z,51.11
2019-04-23T12:39:34.093Z,51.50
2019-04-23T12:41:41.705Z,52.33
2019-04-23T12:42:59.032Z,52.84
2019-04-23T12:43:47.028Z,52.25
2019-04-23T12:44:40.527Z,52.64
2019-04-23T12:45:33.993Z,51.79
2019-04-23T12:46:38.150Z,51.14
2019-04-23T12:47:43.604Z,50.60
2019-04-23T12:49:53.090Z,48.90
2019-04-23T12:50:45.536Z,48.12
2019-04-23T12:52:35.909Z,48.29
2019-04-23T12:54:38.460Z,49.27
2019-04-23T12:55:39.074Z,49.12
2019-04-23T12:56:43.747Z,47.53
2019-04-23T12:57:34.478Z,47.53
2019-04-23T12:58:50.892Z,48.73
2019-04-23T12:59:42.150Z,47.80
2019-04-23T13:00:33.950Z,48.97
2019-04-23T13:01:46.973Z,49.17
2019-04-23T13:02:39.792Z,50.36
2019-04-23T13:04:38.285Z,49.83
2019-04-23T13:05:31.350Z,50.19
2019-04-23T13:06:27.672Z,51.07
2019-04-23T13:07:43.555Z,50.78
2019-04-23T13:11:34.852Z,48.88
2019-04-23T13:12:44.895Z,48.95
2019-04-23T13:14:43.678Z,50.09
2019-04-23T13:15:29.325Z,50.97
2019-04-23T13:16:39.897Z,50.70
2019-04-23T13:17:46.901Z,50.99
2019-04-23T13:18:34.558Z,50.19
2019-04-23T13:19:36.901Z,50.75
2019-04-23T13:21:52.209Z,51.72
2019-04-23T13:24:34.568Z,51.14
2019-04-23T13:25:34.953Z,51.04
2019-04-23T13:26:26.299Z,50.87
2019-04-23T13:27:42.397Z,50.58
2019-04-23T13:28:33.732Z,50.87
2019-04-23T13:29:38.254Z,50.92
2019-04-23T13:31:30.013Z,51.60
2019-04-23T13:32:38.847Z,50.85
2019-04-23T13:34:41.475Z,50.19
2019-04-23T13:35:53.649Z,50.97
2019-04-23T13:36:41.763Z,50.58
2019-04-23T13:37:35.406Z,50.56
2019-04-23T13:39:35.326Z,51.40
2019-04-23T13:41:42.077Z,51.60
2019-04-23T13:42:40.940Z,51.70
2019-04-23T13:44:34.330Z,51.17
2019-04-23T13:45:59.243Z,50.51
2019-04-23T13:46:28.812Z,51.09
2019-04-23T13:47:46.854Z,50.90
2019-04-23T13:48:26.213Z,49.95
2019-04-23T13:49:37.749Z,49.85
2019-04-23T13:53:04.914Z,49.29
2019-04-23T13:54:17.296Z,49.02
2019-04-23T13:55:26.670Z,49.00
2019-04-23T13:56:53.812Z,49.19
2019-04-23T13:58:32.867Z,50.02
2019-04-23T13:59:39.767Z,49.41
2019-04-23T14:01:40.038Z,49.73
2019-04-23T14:02:40.502Z,49.88
2019-04-23T14:03:35.694Z,48.90
2019-04-23T14:05:38.656Z,49.02
2019-04-23T14:07:38.469Z,47.95
2019-04-23T14:08:50.459Z,48.93
2019-04-23T14:10:44.885Z,48.63
2019-04-23T14:11:29.495Z,48.61
2019-04-23T14:12:31.966Z,48.61
2019-04-23T14:14:43.711Z,48.05
2019-04-23T14:15:42.548Z,48.63
2019-04-23T14:16:34.374Z,48.00
2019-04-23T14:18:02.781Z,48.36
2019-04-23T14:19:28.011Z,48.54
2019-04-23T14:21:34.646Z,49.76
2019-04-23T14:22:53.935Z,49.85
2019-04-23T14:24:38.064Z,51.07
2019-04-23T14:25:34.530Z,50.51
2019-04-23T14:28:37.721Z,50.24
2019-04-23T14:29:41.269Z,50.24
2019-04-23T14:30:37.874Z,49.85
2019-04-23T14:31:31.207Z,50.14
2019-04-23T14:32:29.168Z,50.04
2019-04-23T14:33:54.879Z,50.73
2019-04-23T14:34:37.679Z,50.92
2019-04-23T14:37:33.066Z,50.24
2019-04-23T14:38:40.065Z,50.31
2019-04-23T14:40:40.043Z,50.31
2019-04-23T14:42:07.143Z,50.04
2019-04-23T14:43:31.448Z,49.73
2019-04-23T14:44:25.274Z,50.51
2019-04-23T14:46:45.542Z,49.66
2019-04-23T14:47:50.872Z,50.38
2019-04-23T14:48:29.919Z,50.24
2019-04-23T14:50:12.526Z,49.85
2019-04-23T14:55:05.326Z,49.46
2019-04-23T14:56:41.956Z,49.90
2019-04-23T14:57:45.343Z,49.80
2019-04-23T14:58:50.785Z,48.93
2019-04-23T14:59:19.847Z,48.93
2019-04-23T15:00:37.651Z,47.46
2019-04-23T15:02:36.704Z,48.05
2019-04-23T15:03:40.174Z,47.95
2019-04-23T15:04:36.093Z,47.85
2019-04-23T15:05:36.215Z,47.66
2019-04-23T15:06:37.941Z,47.46
2019-04-23T15:07:34.569Z,48.05
2019-04-23T15:08:39.930Z,48.12
2019-04-23T15:09:36.862Z,48.24
2019-04-23T15:10:32.205Z,48.54
2019-04-23T15:12:30.424Z,47.78
2019-04-23T15:13:28.306Z,47.66
2019-04-23T15:14:33.878Z,48.44
2019-04-23T15:16:30.806Z,47.75
2019-04-23T15:17:28.545Z,47.07
2019-04-23T15:18:39.397Z,47.36
2019-04-23T15:19:36.830Z,47.63
2019-04-23T15:20:30.663Z,47.27
2019-04-23T15:22:30.353Z,47.13
2019-04-23T15:23:41.617Z,47.80
2019-04-23T15:25:38.114Z,47.32
2019-04-23T15:27:48.517Z,47.32
2019-04-23T15:28:03.504Z,48.85
2019-04-23T15:28:09.038Z,48.54
2019-04-23T15:29:16.895Z,48.25
2019-04-23T15:30:20.817Z,48.56
2019-04-23T15:31:33.599Z,48.27
2019-04-23T15:32:34.636Z,48.17
2019-04-23T15:33:37.090Z,48.46
2019-04-23T15:34:23.167Z,48.10
2019-04-23T15:36:47.010Z,48.19
2019-04-23T15:37:42.994Z,47.69
2019-04-23T15:38:45.455Z,48.75
2019-04-23T15:39:32.722Z,48.54
2019-04-23T15:40:25.174Z,49.02
2019-04-23T15:42:50.774Z,47.83
2019-04-23T15:43:30.444Z,47.03
2019-04-23T15:44:23.145Z,46.97
2019-04-23T15:45:28.481Z,47.05
2019-04-23T15:46:32.546Z,46.61
2019-04-23T15:47:32.560Z,45.98
2019-04-23T15:48:33.622Z,46.00
2019-04-23T15:49:28.865Z,46.12
2019-04-23T15:51:35.510Z,47.25
2019-04-23T15:53:24.087Z,47.07
2019-04-23T15:54:34.936Z,46.02
2019-04-23T15:55:29.521Z,46.59
2019-04-23T15:57:49.648Z,46.95
2019-04-23T15:58:37.261Z,47.07
2019-04-23T16:00:26.982Z,46.83
2019-04-23T16:01:34.554Z,47.71
2019-04-23T16:02:01.350Z,48.00
2019-04-23T16:03:01.226Z,47.88
2019-04-23T16:04:01.478Z,48.17
2019-04-23T16:05:01.188Z,47.59
2019-04-23T16:06:02.527Z,48.46
2019-04-23T16:07:02.422Z,48.75
2019-04-23T16:08:18.200Z,47.71
2019-04-23T16:09:33.584Z,47.80
2019-04-23T16:11:45.478Z,47.71
2019-04-23T16:12:27.769Z,47.13
2019-04-23T16:13:29.092Z,47.52
2019-04-23T16:15:27.062Z,48.93
2019-04-23T16:17:30.495Z,49.12
2019-04-23T16:18:35.131Z,49.97
2019-04-23T16:19:33.877Z,49.39
2019-04-23T16:20:54.410Z,49.29
2019-04-23T16:21:35.826Z,50.36
2019-04-23T16:22:25.020Z,49.90
2019-04-23T16:23:28.026Z,50.36
2019-04-23T16:24:20.496Z,50.34
2019-04-23T16:25:20.595Z,50.82
2019-04-23T16:26:32.394Z,50.63
2019-04-23T16:27:19.618Z,50.73
2019-04-23T16:28:51.784Z,50.89
2019-04-23T16:29:37.641Z,50.80
2019-04-23T16:30:24.614Z,51.57
2019-04-23T16:31:34.263Z,51.57
2019-04-23T16:32:52.417Z,51.18
2019-04-23T16:33:20.149Z,51.48
2019-04-23T16:35:32.879Z,51.35
2019-04-23T16:36:32.914Z,52.03
2019-04-23T16:37:27.107Z,52.72
2019-04-23T16:38:40.676Z,52.62
2019-04-23T16:39:22.161Z,52.72
2019-04-23T16:40:33.191Z,52.62
2019-04-23T16:41:51.657Z,52.91
2019-04-23T16:42:34.854Z,52.42
2019-04-23T16:44:41.808Z,53.75
2019-04-23T16:45:49.235Z,54.05
2019-04-23T16:46:25.244Z,53.17
2019-04-23T16:47:33.230Z,53.17
2019-04-23T16:49:36.198Z,53.85
2019-04-23T16:51:27.845Z,53.85
2019-04-23T16:52:26.551Z,53.66
2019-04-23T16:53:25.264Z,53.47
2019-04-23T16:54:33.154Z,54.24
2019-04-23T16:55:34.487Z,53.73
2019-04-23T16:57:36.002Z,54.34
2019-04-23T16:59:35.493Z,54.31
2019-04-23T17:00:33.449Z,54.50
2019-04-23T17:01:20.997Z,55.28